Copper Cliff, Canada
Current Conditions -  °F | °C
As of 2:00 PM on Tuesday 21 Oct 2014 (Local Time) from CYSB Reporting Station
Broken Clouds Broken Clouds  
Wind Chill: 25°   Ceiling: 2400
Heat Index: 36°   Visibility: 20mi
Dew Point: 27°   Wind: 18mph
Humidity: 70%   Direction: 20°NNE
Pressure: 30.16"   Gusts: 28mph
Location:  46.47°N, 81.07°W
Report Text: CYSB 211800Z 02016G24KT 20SM BKN024 02/M03 A3016 RMK SC6 SLP229
Loading
Personal Weather Stations






























Interactive Weather Map
Tropical Storm Tracking
New forecast layout! Learn more

10-Day Weather Forecast

Advertisements
Track Severe Weather on mobile